aviador You're here:

EPWR Decoded Metar

WROCLAW in POLAND
Report Time2017-10-18 20:00:00
UTC Time2017-10-18 20:28:06
Flight Rules vfr VFR
Wind310° at 03 kt
W.Decomp.*RWY 29: 2.9 kt HW 0.9 kt RCW
W.Rank310° ranks 6
Current wind is below 310° avg. (8.1)
Visibility9999 m
Phenomena:N/A
Clouds:N/A
Expected CloudBase > 400 ft AGL from Temp-Dew spread
CeilingNone
Temp12°C (ISA -2)
Dew Point11°C (94% RH)
AAT11.3°C
QNH1014 hPa
Density Alt279 ft
Elevation397 ft
Report Wrong Elevation
Raw Report
EPWR 182000Z 31003KT CAVOK 12/11 Q1014=

Extra information for EPWR:More info

Metar Taf Metar & Taf Last 4 Metars F.Rules Stats Wind Profile Meteogram Temp Stats Airport Information Weather charts Add Link Nearby VenuesMetar ALERT Operation Metar Decoded Social comments